Time;durP1;ratioP1;P1;durP2;ratioP2;P2;SDS_P1;SDS_P2;PMS_P1;PMS_P2;Temp;Humidity;BMP_temperature;BMP_pressure;BME280_temperature;BME280_humidity;BME280_pressure;Samples;Min_cycle;Max_cycle;Signal;HPM_P1;HPM_P2
2024/01/17 00:00:04;;;;;;;12.17;8.70;;;3.10;52.00;;;;;;4967669;28;20470;-56
2024/01/17 00:02:29;;;;;;;10.53;8.13;;;3.00;51.90;;;;;;4965150;28;20427;-57
2024/01/17 00:04:55;;;;;;;11.23;7.93;;;3.10;52.00;;;;;;4968796;28;20542;-55
2024/01/17 00:07:21;;;;;;;14.40;8.80;;;2.70;51.70;;;;;;4968804;28;20214;-57
2024/01/17 00:09:47;;;;;;;13.20;8.80;;;2.60;52.80;;;;;;4968808;28;20808;-56
2024/01/17 00:12:13;;;;;;;12.67;8.80;;;2.80;53.00;;;;;;4970800;28;20218;-54
2024/01/17 00:14:38;;;;;;;13.90;9.00;;;2.80;52.50;;;;;;4967931;28;20469;-55
2024/01/17 00:17:04;;;;;;;13.60;8.63;;;2.90;52.40;;;;;;4966164;28;20625;-54
2024/01/17 00:19:31;;;;;;;18.50;9.70;;;3.00;52.10;;;;;;4967997;28;20215;-55
2024/01/17 00:21:56;;;;;;;13.37;9.07;;;3.10;51.80;;;;;;4978129;28;20180;-57
2024/01/17 00:24:22;;;;;;;13.13;9.63;;;2.70;52.00;;;;;;4966348;28;20481;-56
2024/01/17 00:26:48;;;;;;;14.57;9.90;;;2.60;52.70;;;;;;4986195;28;20201;-58
2024/01/17 00:29:13;;;;;;;14.60;9.20;;;2.60;53.00;;;;;;4966780;28;20194;-59
2024/01/17 00:31:39;;;;;;;13.50;9.67;;;2.40;52.70;;;;;;4966139;28;20184;-56
2024/01/17 00:34:05;;;;;;;11.80;8.30;;;2.00;53.80;;;;;;4963068;28;20183;-55
2024/01/17 00:36:30;;;;;;;13.40;9.10;;;1.90;54.20;;;;;;4967778;28;20958;-55
2024/01/17 00:38:56;;;;;;;13.83;8.37;;;1.60;54.70;;;;;;4967325;28;20589;-55
2024/01/17 00:41:21;;;;;;;12.50;9.00;;;1.90;55.30;;;;;;4969192;28;20233;-58
2024/01/17 00:43:47;;;;;;;13.93;8.90;;;2.20;54.60;;;;;;4967790;28;20667;-59
2024/01/17 00:46:13;;;;;;;11.47;8.53;;;2.30;53.90;;;;;;4967507;28;20686;-56
2024/01/17 00:48:38;;;;;;;16.63;9.80;;;2.20;53.70;;;;;;4968013;28;20634;-55
2024/01/17 00:51:04;;;;;;;13.00;9.50;;;2.20;54.10;;;;;;4967515;28;20187;-60
2024/01/17 00:53:30;;;;;;;13.40;8.10;;;2.50;53.90;;;;;;4964700;28;20188;-59
2024/01/17 00:55:58;;;;;;;11.00;8.00;;;2.50;53.20;;;;;;4963936;28;20245;-56
2024/01/17 00:58:23;;;;;;;13.90;8.10;;;2.20;53.50;;;;;;4961407;28;20301;-57
2024/01/17 01:00:49;;;;;;;12.47;8.17;;;2.10;54.00;;;;;;4966552;28;20523;-58
2024/01/17 01:03:15;;;;;;;14.93;9.23;;;2.00;54.40;;;;;;4965752;28;20276;-56
2024/01/17 01:05:40;;;;;;;13.73;9.13;;;2.10;54.50;;;;;;4965870;28;20674;-55
2024/01/17 01:08:06;;;;;;;14.93;9.23;;;2.00;54.50;;;;;;4970977;28;20709;-59
2024/01/17 01:10:32;;;;;;;14.63;8.53;;;2.10;54.50;;;;;;4966844;28;20188;-59
2024/01/17 01:12:57;;;;;;;12.97;9.90;;;2.30;54.10;;;;;;4966848;28;20188;-55
2024/01/17 01:15:23;;;;;;;13.83;9.70;;;2.20;54.00;;;;;;4964312;28;20191;-56
2024/01/17 01:17:49;;;;;;;11.67;8.37;;;2.40;54.10;;;;;;4966513;28;20223;-56
2024/01/17 01:20:14;;;;;;;11.87;8.37;;;2.60;53.60;;;;;;4966454;28;20279;-58
2024/01/17 01:22:40;;;;;;;13.37;7.90;;;2.30;53.10;;;;;;4964700;28;20193;-54
2024/01/17 01:25:06;;;;;;;15.17;8.73;;;1.70;54.60;;;;;;4966704;28;20199;-56
2024/01/17 01:27:32;;;;;;;10.27;8.17;;;1.70;55.60;;;;;;4967069;28;20217;-57
2024/01/17 01:29:57;;;;;;;18.03;9.03;;;2.10;55.50;;;;;;4966509;28;20451;-54
2024/01/17 01:32:23;;;;;;;12.23;8.77;;;2.40;54.80;;;;;;4964940;28;20443;-57
2024/01/17 01:34:48;;;;;;;12.00;9.10;;;2.60;54.20;;;;;;4964957;28;20203;-57
2024/01/17 01:37:14;;;;;;;11.20;7.97;;;2.70;53.60;;;;;;4965701;28;20310;-54
2024/01/17 01:39:39;;;;;;;13.60;8.43;;;2.80;53.50;;;;;;4963978;28;20267;-56
2024/01/17 01:42:05;;;;;;;12.50;8.80;;;3.00;53.30;;;;;;4963744;28;20196;-57
2024/01/17 01:44:31;;;;;;;13.13;9.30;;;2.90;53.00;;;;;;4965068;28;20206;-57
2024/01/17 01:46:57;;;;;;;12.27;8.73;;;3.00;52.80;;;;;;4966376;28;20264;-57
2024/01/17 01:49:24;;;;;;;15.17;9.03;;;3.00;52.60;;;;;;4963186;28;20184;-53
2024/01/17 01:51:52;;;;;;;9.70;8.63;;;3.10;52.60;;;;;;4972997;28;20447;-59
2024/01/17 01:54:21;;;;;;;14.53;9.07;;;3.20;52.40;;;;;;4965939;28;20447;-54
2024/01/17 01:56:48;;;;;;;13.33;10.67;;;3.20;52.00;;;;;;4963969;28;20461;-59
2024/01/17 01:59:17;;;;;;;13.20;8.67;;;3.20;52.10;;;;;;4965980;28;20474;-59
2024/01/17 02:01:43;;;;;;;14.03;9.40;;;3.30;51.90;;;;;;4963027;28;20435;-55
2024/01/17 02:04:09;;;;;;;12.13;9.87;;;3.10;52.10;;;;;;4964882;28;20450;-56
2024/01/17 02:06:35;;;;;;;18.57;9.23;;;2.70;52.90;;;;;;4985663;28;20462;-57
2024/01/17 02:09:02;;;;;;;15.80;9.30;;;2.60;53.40;;;;;;4970596;28;20438;-56
2024/01/17 02:11:31;;;;;;;14.53;8.67;;;2.70;53.40;;;;;;4966336;28;20933;-57
2024/01/17 02:13:59;;;;;;;13.90;9.07;;;2.80;53.60;;;;;;4966623;28;20926;-60
2024/01/17 02:16:26;;;;;;;12.10;8.40;;;3.00;53.40;;;;;;4964987;28;20501;-59
2024/01/17 02:18:52;;;;;;;12.70;8.53;;;3.00;53.40;;;;;;4975975;28;20481;-58
2024/01/17 02:21:17;;;;;;;11.00;8.10;;;3.00;53.10;;;;;;4963809;28;20439;-58
2024/01/17 02:23:43;;;;;;;16.70;9.30;;;3.10;53.30;;;;;;4973747;28;20482;-58
2024/01/17 02:26:09;;;;;;;13.57;8.90;;;3.20;53.10;;;;;;4978310;28;20438;-56
2024/01/17 02:28:35;;;;;;;19.27;8.83;;;3.30;52.80;;;;;;4969357;28;20262;-55
2024/01/17 02:31:01;;;;;;;13.30;8.33;;;3.30;52.50;;;;;;4968748;28;20187;-57
2024/01/17 02:33:27;;;;;;;15.20;9.57;;;3.30;52.60;;;;;;4966451;28;20462;-57
2024/01/17 02:35:53;;;;;;;13.97;9.10;;;3.20;52.60;;;;;;4965358;28;20461;-57
2024/01/17 02:38:18;;;;;;;16.20;9.37;;;3.30;52.60;;;;;;4966628;28;20482;-57
2024/01/17 02:40:44;;;;;;;12.97;9.37;;;3.40;52.60;;;;;;4965373;28;20184;-56
2024/01/17 02:43:09;;;;;;;12.87;9.27;;;3.50;52.30;;;;;;4968610;28;20195;-56
2024/01/17 02:45:35;;;;;;;13.50;9.17;;;3.60;52.30;;;;;;4968759;28;20203;-56
2024/01/17 02:48:02;;;;;;;14.20;8.67;;;3.60;52.10;;;;;;4970181;28;20227;-58
2024/01/17 02:50:28;;;;;;;12.87;7.83;;;3.60;52.00;;;;;;4967409;28;20180;-58
2024/01/17 02:52:54;;;;;;;11.40;8.07;;;3.50;51.50;;;;;;4969201;28;20442;-57
2024/01/17 02:55:20;;;;;;;11.83;8.10;;;3.00;52.50;;;;;;4968673;28;20464;-57
2024/01/17 02:57:45;;;;;;;11.43;8.40;;;3.10;53.20;;;;;;4969105;28;20230;-56
2024/01/17 03:00:11;;;;;;;15.77;8.30;;;3.30;52.90;;;;;;4965751;28;20202;-55
2024/01/17 03:02:37;;;;;;;14.63;9.53;;;3.60;52.60;;;;;;4968349;28;20286;-56
2024/01/17 03:05:04;;;;;;;10.80;8.37;;;3.70;52.10;;;;;;4967843;28;20191;-58
2024/01/17 03:07:30;;;;;;;13.17;9.87;;;3.70;51.90;;;;;;4968575;28;20581;-58
2024/01/17 03:09:56;;;;;;;15.00;9.30;;;3.60;51.90;;;;;;4968618;28;20495;-59
2024/01/17 03:12:21;;;;;;;15.43;9.97;;;3.40;51.80;;;;;;4965318;28;20454;-57
2024/01/17 03:14:47;;;;;;;11.57;8.67;;;2.90;53.00;;;;;;4969629;28;20203;-59
2024/01/17 03:17:12;;;;;;;13.60;8.97;;;2.80;54.10;;;;;;4961810;28;20210;-57
2024/01/17 03:19:38;;;;;;;14.30;9.90;;;2.80;54.40;;;;;;4968100;28;20661;-56
2024/01/17 03:22:04;;;;;;;10.50;8.27;;;2.90;54.40;;;;;;4967160;28;20576;-56
2024/01/17 03:24:30;;;;;;;16.47;9.20;;;2.80;54.60;;;;;;4965660;28;20453;-58
2024/01/17 03:26:55;;;;;;;13.40;9.43;;;3.00;54.70;;;;;;4967395;28;20226;-54
2024/01/17 03:29:21;;;;;;;15.40;10.40;;;3.00;54.40;;;;;;4967283;28;20183;-58
2024/01/17 03:31:47;;;;;;;11.87;7.60;;;2.80;54.90;;;;;;4967480;28;20184;-57
2024/01/17 03:34:13;;;;;;;15.10;9.73;;;2.80;55.40;;;;;;4969378;28;20244;-57
2024/01/17 03:36:38;;;;;;;13.97;8.87;;;3.00;55.20;;;;;;4970994;28;20473;-57
2024/01/17 03:39:04;;;;;;;17.20;10.17;;;3.10;55.40;;;;;;4967507;28;21338;-58
2024/01/17 03:41:29;;;;;;;13.03;9.10;;;3.00;55.20;;;;;;4969994;28;20278;-54
2024/01/17 03:43:57;;;;;;;11.50;9.10;;;2.90;55.70;;;;;;4969697;28;20179;-58
2024/01/17 03:46:24;;;;;;;13.43;7.80;;;3.20;55.70;;;;;;4991293;28;20214;-56
2024/01/17 03:48:50;;;;;;;12.43;8.97;;;3.40;55.50;;;;;;4968886;28;20438;-57
2024/01/17 03:51:15;;;;;;;13.50;8.70;;;3.40;55.50;;;;;;4967386;28;20480;-58
2024/01/17 03:53:41;;;;;;;15.23;8.90;;;3.40;55.30;;;;;;4968912;28;20845;-56
2024/01/17 03:56:07;;;;;;;16.13;8.40;;;3.30;55.80;;;;;;4969380;28;20312;-56
2024/01/17 03:58:32;;;;;;;12.50;9.07;;;3.30;56.40;;;;;;4968802;28;20272;-57
2024/01/17 04:01:00;;;;;;;16.23;9.73;;;3.40;56.70;;;;;;4966521;28;20187;-56
2024/01/17 04:03:25;;;;;;;13.53;8.70;;;3.50;56.70;;;;;;4960121;28;20717;-57
2024/01/17 04:05:51;;;;;;;18.17;8.60;;;3.60;56.80;;;;;;4966318;28;20482;-59
2024/01/17 04:08:17;;;;;;;11.20;8.17;;;3.60;56.90;;;;;;4966620;28;20207;-59
2024/01/17 04:10:42;;;;;;;14.37;9.17;;;3.70;56.90;;;;;;4966600;28;20275;-56
2024/01/17 04:13:08;;;;;;;15.20;9.93;;;3.50;57.10;;;;;;4962284;28;20191;-56
2024/01/17 04:15:33;;;;;;;12.83;9.00;;;3.60;57.50;;;;;;4966443;28;20226;-59
2024/01/17 04:17:59;;;;;;;13.70;9.50;;;3.60;57.50;;;;;;4967252;28;20222;-55
2024/01/17 04:20:24;;;;;;;13.50;9.20;;;3.60;57.80;;;;;;4966639;28;20184;-57
2024/01/17 04:22:50;;;;;;;13.90;8.70;;;3.70;57.90;;;;;;4966914;28;20191;-57
2024/01/17 04:25:16;;;;;;;13.10;9.30;;;3.60;58.30;;;;;;4966238;28;20270;-56
2024/01/17 04:27:41;;;;;;;15.33;9.87;;;3.60;58.60;;;;;;4968608;28;20195;-55
2024/01/17 04:30:10;;;;;;;13.77;9.53;;;3.70;58.90;;;;;;4966840;28;20195;-60
2024/01/17 04:32:36;;;;;;;16.60;9.50;;;3.80;58.90;;;;;;4967294;28;20201;-58
2024/01/17 04:35:01;;;;;;;13.40;8.90;;;3.70;59.50;;;;;;4964867;28;20518;-58
2024/01/17 04:37:27;;;;;;;16.10;9.73;;;3.80;60.00;;;;;;4963885;28;20211;-58
2024/01/17 04:39:52;;;;;;;15.80;9.80;;;3.80;60.10;;;;;;4972736;28;20177;-57
2024/01/17 04:42:18;;;;;;;14.13;10.63;;;3.80;60.20;;;;;;4965165;28;20195;-57
2024/01/17 04:44:45;;;;;;;13.47;9.30;;;3.90;60.30;;;;;;4966763;28;20193;-56
2024/01/17 04:47:13;;;;;;;11.60;8.40;;;3.90;61.10;;;;;;4961079;28;20295;-59
2024/01/17 04:49:39;;;;;;;14.63;9.53;;;3.80;61.80;;;;;;4967938;28;20438;-57
2024/01/17 04:52:04;;;;;;;14.97;8.87;;;3.80;62.30;;;;;;4964015;28;21260;-56
2024/01/17 04:54:30;;;;;;;11.30;8.70;;;3.80;62.30;;;;;;4969889;28;20763;-56
2024/01/17 04:56:57;;;;;;;14.27;9.97;;;3.70;62.60;;;;;;4967635;28;20203;-55
2024/01/17 04:59:22;;;;;;;12.93;9.33;;;3.40;62.30;;;;;;4967751;28;20986;-56
2024/01/17 05:01:48;;;;;;;13.43;8.93;;;3.30;63.60;;;;;;4962531;28;20439;-56
2024/01/17 05:04:14;;;;;;;14.37;9.20;;;3.20;63.60;;;;;;4967106;28;20196;-56
2024/01/17 05:06:39;;;;;;;17.70;10.87;;;3.20;63.50;;;;;;4961613;28;20207;-59
2024/01/17 05:09:08;;;;;;;14.33;9.17;;;3.30;63.20;;;;;;4967732;28;20678;-59
2024/01/17 05:11:33;;;;;;;13.00;9.90;;;3.60;63.00;;;;;;4966720;28;20559;-58
2024/01/17 05:13:59;;;;;;;10.80;9.03;;;3.70;62.70;;;;;;4968135;28;20454;-58
2024/01/17 05:16:24;;;;;;;15.33;9.13;;;3.60;63.70;;;;;;4964387;28;20230;-58
2024/01/17 05:18:50;;;;;;;12.60;9.27;;;3.70;63.70;;;;;;4968316;28;20635;-57
2024/01/17 05:21:15;;;;;;;14.63;9.70;;;3.90;63.50;;;;;;4967434;28;20270;-59
2024/01/17 05:23:41;;;;;;;15.03;9.83;;;4.00;62.90;;;;;;4966755;28;20196;-57
2024/01/17 05:26:07;;;;;;;14.20;10.20;;;4.10;62.50;;;;;;4965466;28;20268;-58
2024/01/17 05:28:32;;;;;;;14.73;9.10;;;4.10;62.80;;;;;;5000076;28;20184;-56
2024/01/17 05:30:58;;;;;;;10.97;8.67;;;4.10;63.20;;;;;;4977092;28;20663;-58
2024/01/17 05:33:23;;;;;;;15.47;9.23;;;4.20;63.60;;;;;;4966521;28;20698;-58
2024/01/17 05:35:49;;;;;;;13.37;9.77;;;4.40;63.20;;;;;;4966527;28;20203;-56
2024/01/17 05:38:14;;;;;;;13.47;9.00;;;4.40;62.80;;;;;;4965618;28;20713;-57
2024/01/17 05:40:40;;;;;;;15.60;10.73;;;4.40;63.40;;;;;;4967157;28;20196;-57
2024/01/17 05:43:06;;;;;;;13.17;9.00;;;4.60;63.40;;;;;;4966237;28;20221;-59
2024/01/17 05:45:31;;;;;;;12.23;9.50;;;4.20;63.70;;;;;;4965960;28;20470;-59
2024/01/17 05:47:57;;;;;;;14.23;10.77;;;4.00;65.30;;;;;;4967188;28;20188;-59
2024/01/17 05:50:23;;;;;;;15.57;10.87;;;3.70;66.60;;;;;;4964593;28;20187;-57
2024/01/17 05:52:48;;;;;;;17.63;10.40;;;3.50;68.30;;;;;;4966961;28;20847;-57
2024/01/17 05:55:15;;;;;;;16.40;11.07;;;3.40;70.70;;;;;;4966644;28;20287;-57
2024/01/17 05:57:41;;;;;;;14.87;10.80;;;3.60;71.50;;;;;;4967095;28;20312;-58
2024/01/17 06:00:09;;;;;;;15.33;9.83;;;3.70;71.60;;;;;;4969194;28;20475;-56
2024/01/17 06:02:39;;;;;;;16.27;10.27;;;3.80;71.00;;;;;;4969239;28;20443;-57
2024/01/17 06:05:05;;;;;;;17.00;11.27;;;3.80;71.10;;;;;;4966271;28;20439;-56
2024/01/17 06:07:31;;;;;;;15.77;11.57;;;4.00;70.40;;;;;;4966098;28;20981;-56
2024/01/17 06:09:57;;;;;;;15.60;9.73;;;4.10;69.90;;;;;;4964410;28;20431;-57
2024/01/17 06:12:23;;;;;;;14.80;10.10;;;4.10;70.50;;;;;;4965202;28;20454;-58
2024/01/17 06:14:48;;;;;;;14.93;10.20;;;4.00;70.70;;;;;;4965945;28;20451;-56
2024/01/17 06:17:14;;;;;;;16.23;11.33;;;4.10;70.30;;;;;;4959824;28;20252;-59
2024/01/17 06:19:41;;;;;;;12.47;9.47;;;4.10;70.80;;;;;;4966466;28;20642;-60
2024/01/17 06:22:10;;;;;;;14.53;10.60;;;4.40;71.20;;;;;;4965934;28;20487;-58
2024/01/17 06:24:35;;;;;;;21.57;10.70;;;4.90;71.50;;;;;;4967171;28;21101;-56
2024/01/17 06:27:02;;;;;;;22.30;11.47;;;5.40;70.70;;;;;;4965623;28;20495;-57
2024/01/17 06:29:33;;;;;;;13.60;9.90;;;6.00;69.50;;;;;;4965635;28;20184;-56
2024/01/17 06:31:59;;;;;;;16.53;9.87;;;6.10;66.70;;;;;;4961638;28;20542;-58
2024/01/17 06:34:24;;;;;;;12.60;8.50;;;6.30;66.50;;;;;;4958163;28;20588;-61
2024/01/17 06:36:50;;;;;;;14.57;10.00;;;6.40;64.80;;;;;;4964635;28;20218;-58
2024/01/17 06:39:16;;;;;;;14.00;10.27;;;6.60;64.00;;;;;;4960755;28;20222;-58
2024/01/17 06:41:43;;;;;;;13.43;10.27;;;6.90;63.40;;;;;;4982363;28;20191;-60
2024/01/17 06:44:09;;;;;;;17.40;9.90;;;6.90;62.50;;;;;;4965201;28;20941;-60
2024/01/17 06:46:35;;;;;;;18.83;10.60;;;6.90;61.10;;;;;;4960605;28;20454;-57
2024/01/17 06:49:01;;;;;;;14.17;9.23;;;7.00;61.40;;;;;;4958972;28;20446;-57
2024/01/17 06:51:27;;;;;;;12.67;9.90;;;7.00;61.40;;;;;;4964285;28;20443;-57
2024/01/17 06:53:52;;;;;;;15.73;11.43;;;7.00;60.70;;;;;;4966955;28;20804;-58
2024/01/17 06:56:18;;;;;;;10.60;9.23;;;7.20;60.80;;;;;;4963472;28;20265;-60
2024/01/17 06:58:44;;;;;;;12.27;8.67;;;7.30;60.10;;;;;;4963989;28;20737;-57
2024/01/17 07:01:09;;;;;;;16.20;11.17;;;7.30;60.30;;;;;;4961922;28;20218;-60
2024/01/17 07:03:35;;;;;;;15.17;10.20;;;7.40;60.00;;;;;;4965566;28;20669;-60
2024/01/17 07:06:01;;;;;;;13.60;9.27;;;7.40;59.70;;;;;;4964913;28;20211;-60
2024/01/17 07:08:27;;;;;;;15.30;9.30;;;7.20;59.90;;;;;;4962675;28;20508;-61
2024/01/17 07:10:53;;;;;;;12.30;8.93;;;7.30;60.30;;;;;;4964145;28;20435;-60
2024/01/17 07:13:19;;;;;;;13.30;9.80;;;7.30;60.20;;;;;;4960706;28;20245;-59
2024/01/17 07:15:44;;;;;;;11.07;8.70;;;7.20;60.00;;;;;;4960255;28;21993;-58
2024/01/17 07:18:10;;;;;;;18.03;9.63;;;7.30;60.90;;;;;;4966361;28;20219;-58
2024/01/17 07:20:36;;;;;;;14.93;11.17;;;7.30;60.00;;;;;;4966244;28;20188;-61
2024/01/17 07:23:02;;;;;;;16.20;10.40;;;7.00;60.70;;;;;;4961855;28;20488;-59
2024/01/17 07:25:28;;;;;;;14.73;10.73;;;6.60;62.20;;;;;;4966893;28;20969;-61
2024/01/17 07:27:54;;;;;;;12.60;10.20;;;6.30;63.40;;;;;;4968918;28;20191;-57
2024/01/17 07:30:19;;;;;;;10.27;8.93;;;6.20;64.80;;;;;;4965968;28;20237;-58
2024/01/17 07:32:45;;;;;;;15.87;10.00;;;6.10;65.50;;;;;;4966513;28;20270;-59
2024/01/17 07:35:11;;;;;;;16.33;11.03;;;5.90;66.20;;;;;;4966042;28;20517;-58
2024/01/17 07:37:36;;;;;;;14.73;9.60;;;5.70;67.50;;;;;;4965266;28;20188;-58
2024/01/17 07:40:02;;;;;;;13.10;9.43;;;5.60;68.10;;;;;;4964746;28;20191;-61
2024/01/17 07:42:28;;;;;;;14.10;10.37;;;5.60;68.60;;;;;;4967483;28;20191;-61
2024/01/17 07:44:54;;;;;;;14.80;8.60;;;5.60;69.00;;;;;;4966096;28;20310;-62
2024/01/17 07:47:19;;;;;;;12.00;8.37;;;5.70;69.00;;;;;;4965956;28;20686;-61
2024/01/17 07:49:46;;;;;;;15.43;9.27;;;6.10;70.80;;;;;;4966804;28;20466;-58
2024/01/17 07:52:12;;;;;;;14.90;9.20;;;6.50;69.80;;;;;;4967474;28;20195;-62
2024/01/17 07:54:38;;;;;;;9.70;6.50;;;6.90;68.30;;;;;;4964934;28;20523;-63
2024/01/17 07:57:04;;;;;;;14.80;8.93;;;6.90;67.20;;;;;;4964401;28;20290;-61
2024/01/17 07:59:30;;;;;;;13.83;7.70;;;7.10;67.40;;;;;;4969074;28;20569;-62
2024/01/17 08:01:56;;;;;;;12.50;9.30;;;7.40;65.70;;;;;;4964199;28;20188;-59
2024/01/17 08:04:22;;;;;;;15.10;9.20;;;7.70;65.40;;;;;;4968899;28;20530;-61
2024/01/17 08:06:48;;;;;;;12.20;8.97;;;7.80;63.90;;;;;;4968487;28;20215;-61
2024/01/17 08:09:20;;;;;;;12.07;8.00;;;8.10;63.40;;;;;;4967191;28;20435;-59
2024/01/17 08:11:57;;;;;;;9.27;7.47;;;8.50;62.60;;;;;;4964035;28;20241;-60
2024/01/17 08:14:23;;;;;;;13.70;8.50;;;8.80;62.10;;;;;;4961273;28;20492;-58
2024/01/17 08:16:49;;;;;;;15.63;11.30;;;9.00;60.60;;;;;;4958279;28;20973;-59
2024/01/17 08:19:15;;;;;;;9.37;7.47;;;9.20;59.30;;;;;;4958537;28;20211;-59
2024/01/17 08:21:44;;;;;;;7.33;6.17;;;9.20;60.00;;;;;;4960020;28;20443;-61
2024/01/17 08:24:10;;;;;;;13.70;9.07;;;9.50;60.00;;;;;;4967265;28;20198;-60
2024/01/17 08:26:35;;;;;;;13.50;10.10;;;10.00;57.60;;;;;;4960367;28;20463;-59
2024/01/17 08:29:01;;;;;;;13.60;8.30;;;10.40;56.70;;;;;;4965147;28;20931;-59
2024/01/17 08:31:27;;;;;;;10.93;6.53;;;10.50;56.20;;;;;;4968049;28;20211;-60
2024/01/17 08:33:53;;;;;;;11.23;7.63;;;10.60;55.80;;;;;;4969989;28;20186;-59
2024/01/17 08:36:19;;;;;;;12.07;8.93;;;10.50;55.60;;;;;;4965595;28;20207;-59
2024/01/17 08:38:44;;;;;;;10.10;7.80;;;10.70;55.60;;;;;;4966920;28;20501;-61
2024/01/17 08:41:10;;;;;;;11.33;6.80;;;10.70;55.10;;;;;;4966684;28;20191;-61
2024/01/17 08:43:36;;;;;;;12.03;6.87;;;10.80;56.00;;;;;;4964235;28;20198;-61
2024/01/17 08:46:03;;;;;;;10.80;7.60;;;10.90;55.30;;;;;;4961155;28;20208;-62
2024/01/17 08:48:29;;;;;;;12.93;7.10;;;10.60;55.90;;;;;;4961212;28;20809;-62
2024/01/17 08:50:55;;;;;;;15.93;9.63;;;10.60;56.20;;;;;;4963041;28;20462;-62
2024/01/17 08:53:21;;;;;;;16.93;8.83;;;10.40;56.40;;;;;;4966955;28;20458;-61
2024/01/17 08:55:47;;;;;;;11.33;7.03;;;10.50;55.80;;;;;;4961323;28;20828;-62
2024/01/17 08:58:13;;;;;;;8.47;6.73;;;10.60;56.50;;;;;;4963097;28;20770;-62
2024/01/17 09:00:38;;;;;;;12.17;7.83;;;10.80;56.50;;;;;;4960482;28;20546;-61
2024/01/17 09:03:04;;;;;;;10.13;6.97;;;11.10;56.00;;;;;;4964407;28;20191;-62
2024/01/17 09:05:30;;;;;;;12.80;9.70;;;11.50;55.40;;;;;;4962537;28;20246;-61
2024/01/17 09:07:57;;;;;;;10.40;8.90;;;11.60;54.60;;;;;;4968861;28;20179;-58
2024/01/17 09:10:23;;;;;;;15.07;11.30;;;11.30;53.70;;;;;;4966909;28;21770;-60
2024/01/17 09:12:50;;;;;;;13.10;10.07;;;10.70;54.30;;;;;;4969980;28;20838;-61
2024/01/17 09:15:16;;;;;;;9.50;7.87;;;10.10;56.20;;;;;;4964681;28;20451;-61
2024/01/17 09:17:41;;;;;;;13.80;9.30;;;9.30;59.10;;;;;;4966732;28;20419;-61
2024/01/17 09:20:08;;;;;;;10.57;8.70;;;9.00;60.90;;;;;;4962877;28;20659;-58
2024/01/17 09:22:33;;;;;;;11.63;8.23;;;8.50;63.10;;;;;;4967633;28;20190;-60
2024/01/17 09:25:00;;;;;;;10.73;8.80;;;8.00;65.20;;;;;;4965284;28;20451;-59
2024/01/17 09:27:29;;;;;;;9.70;8.17;;;7.60;67.70;;;;;;4965061;28;20683;-60
2024/01/17 09:29:55;;;;;;;11.40;9.60;;;7.40;69.60;;;;;;4966881;28;20919;-61
2024/01/17 09:32:21;;;;;;;14.57;8.10;;;7.40;70.50;;;;;;4962857;28;21027;-60
2024/01/17 09:34:47;;;;;;;11.37;8.67;;;7.50;70.30;;;;;;4965655;28;20478;-59
2024/01/17 09:37:16;;;;;;;11.47;7.90;;;7.40;70.80;;;;;;4964917;28;20243;-61
2024/01/17 09:39:43;;;;;;;11.97;8.40;;;7.50;71.50;;;;;;4965522;28;21013;-62
2024/01/17 09:42:09;;;;;;;8.37;6.83;;;7.30;71.90;;;;;;4968446;28;20442;-59
2024/01/17 09:44:35;;;;;;;11.97;7.93;;;7.10;73.40;;;;;;4962884;28;20454;-62
2024/01/17 09:47:03;;;;;;;7.70;6.90;;;7.10;73.90;;;;;;4960558;28;20203;-60
2024/01/17 09:49:29;;;;;;;12.80;7.83;;;7.10;74.80;;;;;;4967623;28;20434;-61
2024/01/17 09:51:55;;;;;;;9.00;7.07;;;7.10;75.00;;;;;;4961423;28;20438;-60
2024/01/17 09:54:26;;;;;;;12.10;7.60;;;7.10;75.30;;;;;;4961030;28;20202;-60
2024/01/17 09:56:54;;;;;;;12.03;8.73;;;7.10;75.40;;;;;;4960239;28;20470;-60
2024/01/17 09:59:27;;;;;;;11.53;7.67;;;7.10;75.40;;;;;;4960041;28;20474;-60
2024/01/17 10:01:56;;;;;;;10.13;8.40;;;7.00;76.00;;;;;;4955514;28;20954;-63
2024/01/17 10:04:26;;;;;;;10.43;8.20;;;6.80;76.90;;;;;;4965294;28;20450;-60
2024/01/17 10:06:55;;;;;;;11.67;8.30;;;6.70;78.30;;;;;;4963582;28;20462;-60
2024/01/17 10:09:26;;;;;;;11.40;8.53;;;6.70;78.70;;;;;;4967082;28;20451;-60
2024/01/17 10:11:52;;;;;;;14.83;8.23;;;6.60;79.40;;;;;;4963678;28;20443;-59
2024/01/17 10:14:19;;;;;;;12.57;8.70;;;6.70;79.10;;;;;;4965089;28;20953;-60
2024/01/17 10:16:46;;;;;;;11.53;7.30;;;6.70;79.80;;;;;;4962238;28;20485;-61
2024/01/17 10:19:11;;;;;;;10.20;7.13;;;6.60;80.20;;;;;;4961440;28;21056;-62
2024/01/17 10:21:37;;;;;;;12.70;8.60;;;6.50;81.20;;;;;;4968432;28;20525;-59
2024/01/17 10:24:06;;;;;;;12.57;9.17;;;6.50;81.40;;;;;;4964242;28;20180;-61
2024/01/17 10:26:32;;;;;;;15.47;9.10;;;6.50;81.50;;;;;;4965276;28;20703;-62
2024/01/17 10:28:58;;;;;;;12.60;8.80;;;6.40;81.70;;;;;;4961797;28;20576;-62
2024/01/17 10:31:24;;;;;;;13.97;9.00;;;6.60;82.00;;;;;;4962728;28;20576;-60
2024/01/17 10:33:51;;;;;;;11.90;9.43;;;6.70;81.30;;;;;;4966580;28;20186;-63
2024/01/17 10:36:16;;;;;;;12.87;8.97;;;6.80;81.20;;;;;;4964931;28;20299;-61
2024/01/17 10:38:43;;;;;;;12.17;8.40;;;6.80;81.00;;;;;;4961772;28;21044;-61
2024/01/17 10:41:10;;;;;;;12.00;9.00;;;6.90;80.70;;;;;;4962164;28;20669;-60
2024/01/17 10:43:56;;;;;;;14.27;8.30;;;6.90;80.90;;;;;;4960479;28;20867;-62
2024/01/17 10:46:22;;;;;;;12.87;9.07;;;6.80;81.60;;;;;;4966462;28;20466;-59
2024/01/17 10:48:48;;;;;;;12.90;9.73;;;6.70;81.80;;;;;;4963566;28;20435;-61
2024/01/17 10:51:21;;;;;;;14.10;9.70;;;6.70;81.80;;;;;;4962088;28;20465;-61
2024/01/17 10:53:49;;;;;;;12.90;9.90;;;6.70;82.50;;;;;;4983913;28;20191;-61
2024/01/17 10:56:20;;;;;;;13.87;9.10;;;6.60;83.10;;;;;;4965385;28;20455;-60
2024/01/17 10:58:53;;;;;;;13.70;9.00;;;6.60;83.00;;;;;;4965282;28;20478;-61
2024/01/17 11:01:32;;;;;;;11.30;8.10;;;6.60;84.00;;;;;;4957492;28;20436;-60
2024/01/17 11:04:07;;;;;;;13.47;9.07;;;6.70;83.30;;;;;;4965439;28;20500;-61
2024/01/17 11:06:33;;;;;;;11.17;8.60;;;6.70;83.90;;;;;;4966479;28;20453;-59
2024/01/17 11:09:00;;;;;;;9.63;8.60;;;6.80;84.30;;;;;;4969418;28;20443;-62
2024/01/17 11:11:27;;;;;;;9.80;8.40;;;6.80;83.90;;;;;;4968007;28;20470;-61
2024/01/17 11:13:53;;;;;;;17.97;10.30;;;6.90;83.60;;;;;;4961632;28;20844;-58
2024/01/17 11:16:19;;;;;;;11.30;8.57;;;6.90;84.00;;;;;;4968912;28;20496;-60
2024/01/17 11:18:47;;;;;;;10.27;7.87;;;6.90;83.60;;;;;;4968923;28;20543;-61
2024/01/17 11:21:13;;;;;;;12.53;7.90;;;7.20;83.10;;;;;;4968577;28;20446;-61
2024/01/17 11:23:45;;;;;;;9.70;8.20;;;7.30;82.10;;;;;;4964824;28;20438;-59
2024/01/17 11:26:37;;;;;;;14.63;8.30;;;7.30;81.70;;;;;;4968197;28;20845;-59
2024/01/17 11:29:15;;;;;;;11.20;7.27;;;7.10;83.00;;;;;;4974758;28;20439;-59
2024/01/17 11:32:03;;;;;;;11.00;7.30;;;6.90;84.70;;;;;;4965685;28;20439;-60
2024/01/17 11:34:29;;;;;;;14.77;7.10;;;6.90;85.70;;;;;;4964248;28;20481;-60
2024/01/17 11:36:55;;;;;;;8.23;6.20;;;6.70;86.70;;;;;;4965502;28;20498;-59
2024/01/17 11:39:20;;;;;;;11.83;7.10;;;6.90;87.00;;;;;;4964137;28;20928;-60
2024/01/17 11:41:49;;;;;;;9.73;6.20;;;7.00;87.10;;;;;;4968698;28;20188;-58
2024/01/17 11:44:17;;;;;;;7.73;6.40;;;7.10;86.80;;;;;;4968566;28;20199;-59
2024/01/17 11:46:51;;;;;;;7.60;6.27;;;7.00;87.60;;;;;;4965573;28;20832;-60
2024/01/17 11:49:40;;;;;;;8.70;5.87;;;7.10;88.20;;;;;;4964575;28;20453;-61
2024/01/17 11:52:27;;;;;;;5.63;4.93;;;7.40;86.40;;;;;;4963055;28;20450;-58
2024/01/17 11:54:54;;;;;;;7.63;5.40;;;7.40;86.70;;;;;;4962983;28;20451;-60
2024/01/17 11:57:19;;;;;;;5.07;4.50;;;7.30;87.90;;;;;;4964508;28;20993;-62
2024/01/17 12:00:09;;;;;;;5.57;4.60;;;7.30;88.50;;;;;;4961728;28;20487;-60
2024/01/17 12:02:40;;;;;;;4.57;4.07;;;7.20;89.40;;;;;;4963588;28;20179;-62
2024/01/17 12:05:07;;;;;;;7.70;4.53;;;7.40;89.90;;;;;;4961378;28;20588;-63
2024/01/17 12:07:40;;;;;;;10.90;7.40;;;7.60;88.90;;;;;;4966470;28;20435;-60
2024/01/17 12:10:11;;;;;;;7.80;6.30;;;7.60;87.70;;;;;;4967297;28;20754;-58
2024/01/17 12:12:37;;;;;;;11.90;5.43;;;7.80;86.20;;;;;;4965163;28;21291;-58
2024/01/17 12:15:05;;;;;;;6.10;4.23;;;8.00;85.50;;;;;;4967583;28;20454;-62
2024/01/17 12:17:33;;;;;;;3.53;2.90;;;7.90;87.30;;;;;;4966262;28;20554;-62
2024/01/17 12:20:00;;;;;;;3.10;2.33;;;7.90;88.20;;;;;;4963090;28;20502;-62
2024/01/17 12:22:25;;;;;;;3.77;3.23;;;8.10;88.10;;;;;;4964855;28;20470;-62
2024/01/17 12:24:53;;;;;;;6.80;4.67;;;8.30;86.10;;;;;;4969260;28;20481;-61
2024/01/17 12:27:19;;;;;;;5.03;4.53;;;8.60;84.60;;;;;;4965002;28;20298;-61
2024/01/17 12:29:47;;;;;;;6.07;5.00;;;8.90;82.70;;;;;;4965608;28;20548;-61
2024/01/17 12:32:13;;;;;;;5.97;4.10;;;8.90;84.10;;;;;;4968724;28;20203;-59
2024/01/17 12:34:41;;;;;;;6.20;5.03;;;9.00;82.10;;;;;;4968229;28;20537;-61
2024/01/17 12:37:07;;;;;;;4.93;4.40;;;9.40;80.90;;;;;;4962703;28;20715;-60
2024/01/17 12:39:36;;;;;;;9.00;5.30;;;9.60;78.60;;;;;;4966105;28;20487;-60
2024/01/17 12:42:03;;;;;;;8.20;5.43;;;9.60;78.80;;;;;;4967746;28;20222;-61